sensor_id;sensor_type;location;lat;lon;timestamp;pressure;altitude;pressure_sealevel;temperature;humidity
47710;BME280;33473;51.640;5.892;2023-08-31T00:10:59;100700;;;18.5;53.0
47710;BME280;33473;51.640;5.892;2023-08-31T00:24:20;100700;;;18.4;53.0
47710;BME280;33473;51.640;5.892;2023-08-31T00:37:40;100700;;;18.3;53.0
47710;BME280;33473;51.640;5.892;2023-08-31T00:51:01;100700;;;18.3;53.0
47710;BME280;33473;51.640;5.892;2023-08-31T01:04:21;100700;;;18.2;53.0
47710;BME280;33473;51.640;5.892;2023-08-31T01:17:41;100700;;;18.1;53.0
47710;BME280;33473;51.640;5.892;2023-08-31T01:31:00;100700;;;18.0;53.0
47710;BME280;33473;51.640;5.892;2023-08-31T01:44:20;100700;;;18.0;54.0
47710;BME280;33473;51.640;5.892;2023-08-31T01:57:42;100700;;;18.1;55.0
47710;BME280;33473;51.640;5.892;2023-08-31T02:11:03;100700;;;18.4;55.0
47710;BME280;33473;51.640;5.892;2023-08-31T02:24:24;100700;;;18.6;55.0
47710;BME280;33473;51.640;5.892;2023-08-31T02:37:46;100700;;;18.7;55.0
47710;BME280;33473;51.640;5.892;2023-08-31T02:51:05;100700;;;18.8;55.0
47710;BME280;33473;51.640;5.892;2023-08-31T03:04:25;100700;;;18.9;55.0
47710;BME280;33473;51.640;5.892;2023-08-31T03:17:46;100700;;;19.0;55.0
47710;BME280;33473;51.640;5.892;2023-08-31T03:31:08;100700;;;18.8;54.0
47710;BME280;33473;51.640;5.892;2023-08-31T03:44:28;100700;;;18.7;54.0
47710;BME280;33473;51.640;5.892;2023-08-31T03:57:49;100700;;;18.6;54.0
47710;BME280;33473;51.640;5.892;2023-08-31T04:11:09;100700;;;18.5;54.0
47710;BME280;33473;51.640;5.892;2023-08-31T04:24:30;100700;;;18.5;54.0
47710;BME280;33473;51.640;5.892;2023-08-31T04:37:50;100700;;;18.4;54.0
47710;BME280;33473;51.640;5.892;2023-08-31T04:51:10;100700;;;18.4;54.0
47710;BME280;33473;51.640;5.892;2023-08-31T05:04:31;100700;;;18.4;54.0
47710;BME280;33473;51.640;5.892;2023-08-31T05:17:51;100800;;;18.4;55.0
47710;BME280;33473;51.640;5.892;2023-08-31T05:31:12;100800;;;18.4;55.0
47710;BME280;33473;51.640;5.892;2023-08-31T05:44:32;100800;;;18.6;55.0
47710;BME280;33473;51.640;5.892;2023-08-31T05:57:52;100800;;;18.8;55.0
47710;BME280;33473;51.640;5.892;2023-08-31T06:11:13;100800;;;18.8;55.0
47710;BME280;33473;51.640;5.892;2023-08-31T06:24:33;100800;;;19.0;55.0
47710;BME280;33473;51.640;5.892;2023-08-31T06:37:54;100800;;;19.3;55.0
47710;BME280;33473;51.640;5.892;2023-08-31T06:51:14;100800;;;19.6;55.0
47710;BME280;33473;51.640;5.892;2023-08-31T07:04:34;100800;;;20.0;55.0
47710;BME280;33473;51.640;5.892;2023-08-31T07:17:54;100800;;;20.2;54.0
47710;BME280;33473;51.640;5.892;2023-08-31T07:31:14;100800;;;20.7;54.0
47710;BME280;33473;51.640;5.892;2023-08-31T07:44:35;100900;;;21.5;53.0
47710;BME280;33473;51.640;5.892;2023-08-31T07:57:56;100900;;;22.0;52.0
47710;BME280;33473;51.640;5.892;2023-08-31T08:11:16;100900;;;22.9;50.0
47710;BME280;33473;51.640;5.892;2023-08-31T08:24:36;100900;;;23.1;48.0
47710;BME280;33473;51.640;5.892;2023-08-31T08:37:55;100900;;;23.5;48.0
47710;BME280;33473;51.640;5.892;2023-08-31T08:51:17;100900;;;23.4;46.0
47710;BME280;33473;51.640;5.892;2023-08-31T09:04:38;100900;;;23.8;45.0
47710;BME280;33473;51.640;5.892;2023-08-31T09:17:59;100900;;;23.4;44.0
47710;BME280;33473;51.640;5.892;2023-08-31T09:31:19;100900;;;23.7;45.0
47710;BME280;33473;51.640;5.892;2023-08-31T09:44:39;100900;;;24.4;43.0
47710;BME280;33473;51.640;5.892;2023-08-31T09:57:58;100900;;;24.7;39.0
47710;BME280;33473;51.640;5.892;2023-08-31T10:11:20;100900;;;25.4;39.0
47710;BME280;33473;51.640;5.892;2023-08-31T10:24:41;100900;;;25.0;38.0
47710;BME280;33473;51.640;5.892;2023-08-31T10:38:01;100900;;;24.8;39.0
47710;BME280;33473;51.640;5.892;2023-08-31T10:51:21;100900;;;25.7;38.0
47710;BME280;33473;51.640;5.892;2023-08-31T11:04:42;100900;;;26.2;37.0
47710;BME280;33473;51.640;5.892;2023-08-31T11:18:02;100900;;;26.4;35.0
47710;BME280;33473;51.640;5.892;2023-08-31T11:31:23;100900;;;26.5;37.0
47710;BME280;33473;51.640;5.892;2023-08-31T11:44:45;100900;;;26.4;35.0
47710;BME280;33473;51.640;5.892;2023-08-31T11:58:04;100900;;;26.5;38.0
47710;BME280;33473;51.640;5.892;2023-08-31T12:11:26;100900;;;26.0;39.0
47710;BME280;33473;51.640;5.892;2023-08-31T12:24:47;100900;;;25.0;40.0
47710;BME280;33473;51.640;5.892;2023-08-31T12:38:07;100900;;;23.9;46.0
47710;BME280;33473;51.640;5.892;2023-08-31T12:51:26;100900;;;22.9;49.0
47710;BME280;33473;51.640;5.892;2023-08-31T13:04:48;100900;;;22.8;51.0
47710;BME280;33473;51.640;5.892;2023-08-31T13:18:09;100900;;;22.8;53.0
47710;BME280;33473;51.640;5.892;2023-08-31T13:31:31;100900;;;22.8;54.0
47710;BME280;33473;51.640;5.892;2023-08-31T13:44:52;100900;;;23.0;56.0
47710;BME280;33473;51.640;5.892;2023-08-31T13:58:12;101000;;;23.3;55.0
47710;BME280;33473;51.640;5.892;2023-08-31T14:11:33;100900;;;23.1;54.0
47710;BME280;33473;51.640;5.892;2023-08-31T14:24:53;100900;;;23.1;54.0
47710;BME280;33473;51.640;5.892;2023-08-31T14:38:13;100900;;;23.8;55.0
47710;BME280;33473;51.640;5.892;2023-08-31T14:51:34;100900;;;24.7;52.0
47710;BME280;33473;51.640;5.892;2023-08-31T15:04:54;100900;;;24.9;47.0
47710;BME280;33473;51.640;5.892;2023-08-31T15:18:14;100900;;;25.2;46.0
47710;BME280;33473;51.640;5.892;2023-08-31T15:31:33;100900;;;25.5;45.0
47710;BME280;33473;51.640;5.892;2023-08-31T15:44:55;100900;;;25.5;41.0
47710;BME280;33473;51.640;5.892;2023-08-31T15:58:15;100900;;;25.2;42.0
47710;BME280;33473;51.640;5.892;2023-08-31T16:11:36;100900;;;25.1;46.0
47710;BME280;33473;51.640;5.892;2023-08-31T16:24:57;101000;;;25.1;46.0
47710;BME280;33473;51.640;5.892;2023-08-31T16:38:17;101000;;;24.8;46.0
47710;BME280;33473;51.640;5.892;2023-08-31T16:51:36;101000;;;24.7;46.0
47710;BME280;33473;51.640;5.892;2023-08-31T17:04:58;101000;;;24.5;46.0
47710;BME280;33473;51.640;5.892;2023-08-31T17:18:19;101000;;;24.4;48.0
47710;BME280;33473;51.640;5.892;2023-08-31T17:31:39;101000;;;24.1;48.0
47710;BME280;33473;51.640;5.892;2023-08-31T17:44:58;101000;;;23.9;49.0
47710;BME280;33473;51.640;5.892;2023-08-31T17:58:20;101000;;;23.8;50.0
47710;BME280;33473;51.640;5.892;2023-08-31T18:11:39;101000;;;23.5;49.0
47710;BME280;33473;51.640;5.892;2023-08-31T18:24:59;101000;;;23.4;50.0
47710;BME280;33473;51.640;5.892;2023-08-31T18:38:19;101000;;;23.1;49.0
47710;BME280;33473;51.640;5.892;2023-08-31T18:51:40;101000;;;22.9;49.0
47710;BME280;33473;51.640;5.892;2023-08-31T19:05:00;101000;;;22.5;50.0
47710;BME280;33473;51.640;5.892;2023-08-31T19:18:21;101000;;;22.2;51.0
47710;BME280;33473;51.640;5.892;2023-08-31T19:31:42;101000;;;21.9;52.0
47710;BME280;33473;51.640;5.892;2023-08-31T19:45:04;101000;;;21.7;52.0
47710;BME280;33473;51.640;5.892;2023-08-31T19:58:23;101100;;;21.5;53.0
47710;BME280;33473;51.640;5.892;2023-08-31T20:11:43;101000;;;21.3;54.0
47710;BME280;33473;51.640;5.892;2023-08-31T20:25:03;101000;;;21.2;54.0
47710;BME280;33473;51.640;5.892;2023-08-31T20:38:24;101100;;;21.1;53.0
47710;BME280;33473;51.640;5.892;2023-08-31T20:51:44;101100;;;20.9;53.0
47710;BME280;33473;51.640;5.892;2023-08-31T21:05:05;101000;;;20.7;53.0
47710;BME280;33473;51.640;5.892;2023-08-31T21:18:27;101100;;;20.6;53.0
47710;BME280;33473;51.640;5.892;2023-08-31T21:31:48;101000;;;20.5;53.0
47710;BME280;33473;51.640;5.892;2023-08-31T21:45:10;101100;;;20.4;53.0
47710;BME280;33473;51.640;5.892;2023-08-31T21:58:31;101100;;;20.2;53.0
47710;BME280;33473;51.640;5.892;2023-08-31T22:11:52;101100;;;20.0;53.0
47710;BME280;33473;51.640;5.892;2023-08-31T22:25:12;101100;;;19.9;54.0
47710;BME280;33473;51.640;5.892;2023-08-31T22:38:32;101100;;;19.8;54.0
47710;BME280;33473;51.640;5.892;2023-08-31T22:51:53;101100;;;19.7;54.0
47710;BME280;33473;51.640;5.892;2023-08-31T23:05:13;101000;;;19.7;54.0
47710;BME280;33473;51.640;5.892;2023-08-31T23:18:33;101100;;;19.7;54.0
47710;BME280;33473;51.640;5.892;2023-08-31T23:31:52;101000;;;19.6;55.0
47710;BME280;33473;51.640;5.892;2023-08-31T23:45:14;101100;;;19.5;54.0
47710;BME280;33473;51.640;5.892;2023-08-31T23:58:35;101100;;;19.5;54.0
